Time;durP1;ratioP1;P1;durP2;ratioP2;P2;SDS_P1;SDS_P2;PMS_P1;PMS_P2;Temp;Humidity;BMP_temperature;BMP_pressure;BME280_temperature;BME280_humidity;BME280_pressure;Samples;Min_cycle;Max_cycle;Signal;HPM_P1;HPM_P2
2023/01/26 00:02:04;;;;;;;90.87;81.47;;;0.70;99.90;;;;;;5031203;28;20263;-52
2023/01/26 00:04:33;;;;;;;197.90;155.07;;;0.80;99.90;;;;;;5031823;28;20238;-52
2023/01/26 00:07:01;;;;;;;299.17;267.13;;;0.80;99.90;;;;;;5031989;28;20227;-53
2023/01/26 00:09:29;;;;;;;541.77;311.00;;;0.80;99.90;;;;;;5031746;28;20298;-53
2023/01/26 00:11:57;;;;;;;142.77;128.40;;;0.70;99.90;;;;;;5031037;28;20266;-53
2023/01/26 00:14:25;;;;;;;250.27;196.50;;;0.70;99.90;;;;;;5030246;28;20820;-52
2023/01/26 00:16:53;;;;;;;82.13;73.10;;;0.70;99.90;;;;;;5031580;28;20673;-53
2023/01/26 00:19:21;;;;;;;258.50;199.13;;;0.60;99.90;;;;;;5031730;28;20241;-54
2023/01/26 00:21:50;;;;;;;84.50;76.50;;;0.60;99.90;;;;;;5031761;28;20309;-51
2023/01/26 00:24:18;;;;;;;1897.60;492.63;;;0.60;99.90;;;;;;5028884;28;20298;-52
2023/01/26 00:26:47;;;;;;;551.23;298.00;;;0.50;99.90;;;;;;5031571;28;20206;-52
2023/01/26 00:29:14;;;;;;;547.73;352.57;;;0.40;99.90;;;;;;5031536;28;20237;-52
2023/01/26 00:31:42;;;;;;;343.73;252.63;;;0.50;99.90;;;;;;5031455;28;20317;-53
2023/01/26 00:34:11;;;;;;;165.20;148.50;;;0.50;99.90;;;;;;5031178;28;20214;-54
2023/01/26 00:36:38;;;;;;;215.13;194.73;;;0.50;99.90;;;;;;5031603;28;20339;-53
2023/01/26 00:39:08;;;;;;;214.00;190.90;;;0.50;99.90;;;;;;5027863;28;20211;-50
2023/01/26 00:44:21;;;;;;;846.10;398.87;;;0.40;99.90;;;;;;5030660;28;20246;-53
2023/01/26 00:46:49;;;;;;;1996.90;660.57;;;0.30;99.90;;;;;;5031258;28;20282;-52
2023/01/26 00:49:18;;;;;;;962.47;376.80;;;0.20;99.90;;;;;;5030631;28;20377;-52
2023/01/26 00:51:46;;;;;;;169.53;152.87;;;0.30;99.90;;;;;;5030564;28;20716;-53
2023/01/26 00:54:15;;;;;;;1217.93;545.93;;;0.40;99.90;;;;;;5030971;28;20202;-52
2023/01/26 00:56:43;;;;;;;157.93;137.03;;;0.40;99.90;;;;;;5031313;28;20268;-53
2023/01/26 00:59:12;;;;;;;335.33;303.17;;;0.50;99.90;;;;;;5031132;28;20302;-52
2023/01/26 01:01:40;;;;;;;90.93;81.00;;;0.50;99.90;;;;;;5023010;28;20224;-52
2023/01/26 01:04:08;;;;;;;473.23;252.40;;;0.40;99.90;;;;;;5029587;28;20227;-52
2023/01/26 01:06:36;;;;;;;127.00;102.60;;;0.50;99.90;;;;;;5030938;28;20293;-53
2023/01/26 01:09:04;;;;;;;105.50;94.90;;;0.60;99.90;;;;;;5022670;28;20219;-52
2023/01/26 01:11:34;;;;;;;102.03;85.97;;;0.50;99.90;;;;;;5030266;28;20261;-52
2023/01/26 01:14:02;;;;;;;188.43;168.23;;;0.50;99.90;;;;;;5027957;28;20244;-52
2023/01/26 01:16:30;;;;;;;152.37;136.23;;;0.50;99.90;;;;;;5030717;28;20287;-52
2023/01/26 01:18:58;;;;;;;194.20;158.70;;;0.50;99.90;;;;;;5030789;28;20297;-52
2023/01/26 01:21:26;;;;;;;142.30;123.90;;;0.50;99.90;;;;;;5030308;28;20303;-52
2023/01/26 01:23:54;;;;;;;516.90;207.33;;;0.50;99.90;;;;;;5030172;28;20735;-52
2023/01/26 01:26:22;;;;;;;177.87;144.17;;;0.60;99.90;;;;;;5030441;28;20217;-53
2023/01/26 01:28:53;;;;;;;93.40;80.00;;;0.60;99.90;;;;;;5030515;28;20234;-53
2023/01/26 01:31:22;;;;;;;217.83;163.27;;;0.70;99.90;;;;;;5030357;28;20342;-54
2023/01/26 01:33:51;;;;;;;1012.30;430.20;;;0.70;99.90;;;;;;5029954;28;20206;-53
2023/01/26 01:36:19;;;;;;;264.77;241.90;;;0.60;99.90;;;;;;5030226;28;20293;-52
2023/01/26 01:38:48;;;;;;;165.07;147.07;;;0.50;99.90;;;;;;5019415;28;20248;-52
2023/01/26 01:41:17;;;;;;;1999.90;991.87;;;0.50;99.90;;;;;;5030129;28;20287;-52
2023/01/26 01:43:46;;;;;;;275.87;245.93;;;0.50;99.90;;;;;;5029346;28;20252;-52
2023/01/26 01:46:25;;;;;;;132.37;119.63;;;0.50;99.90;;;;;;5030315;28;20249;-52
2023/01/26 01:48:57;;;;;;;103.17;93.13;;;0.60;99.90;;;;;;5029954;28;20213;-53
2023/01/26 01:51:32;;;;;;;226.73;202.77;;;0.60;99.90;;;;;;5029967;28;20341;-53
2023/01/26 01:54:04;;;;;;;346.30;315.90;;;0.60;99.90;;;;;;5029183;28;20716;-54
2023/01/26 01:56:34;;;;;;;382.60;344.20;;;0.60;99.90;;;;;;5028298;28;20294;-53
2023/01/26 01:59:04;;;;;;;227.63;171.90;;;0.60;99.90;;;;;;5028932;28;20248;-52
2023/01/26 02:01:34;;;;;;;1563.17;465.10;;;0.50;99.90;;;;;;5029513;28;20310;-53
2023/01/26 02:04:05;;;;;;;908.40;384.83;;;0.50;99.90;;;;;;5029427;28;20216;-53
2023/01/26 02:06:37;;;;;;;137.07;125.30;;;0.40;99.90;;;;;;5029369;28;20675;-53
2023/01/26 02:09:07;;;;;;;206.97;176.53;;;0.40;99.90;;;;;;5028108;28;20237;-53
2023/01/26 02:11:40;;;;;;;246.07;204.63;;;0.40;99.90;;;;;;5029439;28;20256;-53
2023/01/26 02:14:10;;;;;;;333.37;231.17;;;0.30;99.90;;;;;;5029188;28;20296;-53
2023/01/26 02:16:39;;;;;;;165.77;134.13;;;0.40;99.90;;;;;;5024709;28;20236;-52
2023/01/26 02:19:18;;;;;;;112.47;82.73;;;0.40;99.90;;;;;;5028139;28;20297;-53
2023/01/26 02:21:48;;;;;;;150.70;135.77;;;0.40;99.90;;;;;;5046611;28;20261;-52
2023/01/26 02:24:22;;;;;;;138.20;124.33;;;0.40;99.90;;;;;;5025813;28;20231;-52
2023/01/26 02:26:53;;;;;;;274.77;249.37;;;0.50;99.90;;;;;;5029312;28;20283;-52
2023/01/26 02:29:22;;;;;;;264.80;207.03;;;0.60;99.90;;;;;;5029672;28;20607;-54
2023/01/26 02:31:50;;;;;;;186.10;131.63;;;0.60;99.90;;;;;;5028871;28;20326;-52
2023/01/26 02:34:18;;;;;;;123.57;111.47;;;0.50;99.90;;;;;;5029379;28;20213;-52
2023/01/26 02:36:56;;;;;;;169.07;138.73;;;0.60;99.90;;;;;;5020569;28;20241;-54
2023/01/26 02:39:38;;;;;;;202.73;181.90;;;0.60;99.90;;;;;;5017266;28;20293;-52
2023/01/26 02:44:52;;;;;;;627.90;414.57;;;0.60;99.90;;;;;;5028966;28;20242;-52
2023/01/26 02:47:21;;;;;;;848.03;481.47;;;0.60;99.90;;;;;;5028867;28;20210;-52
2023/01/26 02:49:49;;;;;;;399.67;356.07;;;0.40;99.90;;;;;;5025625;28;20285;-53
2023/01/26 02:52:34;;;;;;;137.33;123.20;;;0.40;99.90;;;;;;5028188;28;20295;-51
2023/01/26 02:57:49;;;;;;;356.93;275.43;;;0.50;99.90;;;;;;5029096;28;20216;-52
2023/01/26 03:00:19;;;;;;;168.47;153.47;;;0.40;99.90;;;;;;5029103;28;20293;-52
2023/01/26 03:02:48;;;;;;;233.30;208.70;;;0.40;99.90;;;;;;5025618;28;20212;-52
2023/01/26 03:05:16;;;;;;;327.87;248.87;;;0.50;99.90;;;;;;5028870;28;20289;-51
2023/01/26 03:07:44;;;;;;;323.47;269.00;;;0.50;99.90;;;;;;5028306;28;20791;-53
2023/01/26 03:10:14;;;;;;;277.37;216.90;;;0.40;99.90;;;;;;5028578;28;20326;-52
2023/01/26 03:12:42;;;;;;;236.67;183.07;;;0.40;99.90;;;;;;5028539;28;20241;-53
2023/01/26 03:27:25;;;;;;;520.77;354.33;;;0.40;99.90;;;;;;5026594;28;20292;-53
2023/01/26 03:29:26;;;;;;;1125.80;569.20;;;0.20;99.90;;;;;;5031754;28;20222;-51
2023/01/26 03:31:56;;;;;;;382.90;341.80;;;0.10;99.90;;;;;;5031532;28;20315;-53
2023/01/26 03:34:23;;;;;;;327.87;292.37;;;0.10;99.90;;;;;;5032549;28;20210;-53
2023/01/26 03:36:52;;;;;;;181.70;164.20;;;0.10;99.90;;;;;;5032277;28;20602;-52
2023/01/26 03:56:20;;;;;;;1999.90;777.50;;;-0.10;99.90;;;;;;5020408;28;20214;-54
2023/01/26 03:58:51;;;;;;;1327.47;584.60;;;-0.20;99.90;;;;;;5032276;28;20238;-52
2023/01/26 04:01:20;;;;;;;923.30;503.03;;;-0.20;99.90;;;;;;5023073;28;20262;-53
2023/01/26 04:09:23;;;;;;;1932.67;674.10;;;-0.30;99.90;;;;;;5031222;28;20298;-53
2023/01/26 04:11:51;;;;;;;1663.17;663.20;;;-0.30;99.90;;;;;;5030549;28;20260;-51
2023/01/26 04:22:50;;;;;;;1999.90;798.43;;;-0.40;99.90;;;;;;5027678;28;20206;-52
2023/01/26 04:25:20;;;;;;;666.07;476.17;;;-0.50;99.90;;;;;;5031791;28;20208;-52
2023/01/26 04:27:48;;;;;;;604.07;468.60;;;-0.50;99.90;;;;;;5031779;28;20769;-52
2023/01/26 04:30:17;;;;;;;660.20;461.07;;;-0.50;99.90;;;;;;5031128;28;20286;-51
2023/01/26 04:32:46;;;;;;;1373.00;630.63;;;-0.50;99.90;;;;;;5030761;28;20705;-53
2023/01/26 04:35:15;;;;;;;1479.57;584.47;;;-0.50;99.90;;;;;;5031220;28;20632;-52
2023/01/26 04:37:43;;;;;;;565.23;392.53;;;-0.50;99.90;;;;;;5030645;28;20210;-54
2023/01/26 04:40:12;;;;;;;424.13;322.80;;;-0.50;99.90;;;;;;5029748;28;20237;-54
2023/01/26 04:42:40;;;;;;;703.30;484.70;;;-0.40;99.90;;;;;;5031165;28;20226;-53
2023/01/26 04:45:10;;;;;;;1999.90;693.53;;;-0.40;99.90;;;;;;5030995;28;20263;-53
2023/01/26 04:47:38;;;;;;;454.97;408.87;;;-0.60;99.90;;;;;;5018809;28;20293;-52
2023/01/26 04:50:07;;;;;;;1999.90;778.70;;;-0.50;99.90;;;;;;5031159;28;20236;-52
2023/01/26 04:52:36;;;;;;;1762.47;663.70;;;-0.60;99.90;;;;;;5030698;28;20315;-53
2023/01/26 04:55:05;;;;;;;1355.87;594.10;;;-0.60;99.90;;;;;;5030886;28;20221;-53
2023/01/26 04:57:33;;;;;;;1999.90;746.17;;;-0.70;99.90;;;;;;5031238;28;20215;-52
2023/01/26 05:00:01;;;;;;;354.57;319.87;;;-0.70;99.90;;;;;;5023045;28;20303;-53
2023/01/26 05:02:29;;;;;;;382.87;347.23;;;-0.60;99.90;;;;;;5030600;28;20290;-52
2023/01/26 05:04:57;;;;;;;1769.57;649.13;;;-0.60;99.90;;;;;;5030878;28;20303;-52
2023/01/26 05:07:25;;;;;;;1338.30;683.63;;;-0.60;99.90;;;;;;5031009;28;20241;-52
2023/01/26 05:09:54;;;;;;;1999.90;812.07;;;-0.70;99.90;;;;;;5030355;28;20308;-52
2023/01/26 05:12:34;;;;;;;1999.90;773.87;;;-0.80;99.90;;;;;;5030668;28;20286;-51
2023/01/26 05:15:02;;;;;;;931.80;567.83;;;-0.90;99.90;;;;;;5025188;28;20849;-52
2023/01/26 05:17:30;;;;;;;1999.90;797.93;;;-0.90;99.90;;;;;;5026485;28;20312;-52
2023/01/26 05:19:58;;;;;;;1999.90;917.03;;;-1.00;99.90;;;;;;5029414;28;20310;-53
2023/01/26 05:22:26;;;;;;;1999.90;999.90;;;-1.00;99.90;;;;;;5047834;28;20226;-51
2023/01/26 05:24:55;;;;;;;1452.43;560.27;;;-1.00;99.90;;;;;;5049997;28;20306;-52
2023/01/26 05:27:23;;;;;;;1509.80;870.13;;;-0.90;99.90;;;;;;5037684;28;20304;-53
2023/01/26 05:29:54;;;;;;;1899.20;698.13;;;-1.00;99.90;;;;;;5049757;28;20643;-52
2023/01/26 05:32:21;;;;;;;1999.90;905.80;;;-1.00;99.90;;;;;;5049922;28;20255;-53
2023/01/26 05:34:49;;;;;;;1730.73;765.37;;;-1.00;99.90;;;;;;5050302;28;20231;-53
2023/01/26 05:37:17;;;;;;;1737.63;754.07;;;-1.00;99.90;;;;;;5049669;28;20293;-53
2023/01/26 05:39:46;;;;;;;1999.90;839.63;;;-1.00;99.90;;;;;;5050444;28;20238;-52
2023/01/26 05:42:15;;;;;;;1338.90;569.17;;;-1.10;99.90;;;;;;5050031;28;20336;-52
2023/01/26 05:44:43;;;;;;;1028.30;612.83;;;-1.10;99.90;;;;;;5050351;28;20300;-52
2023/01/26 05:47:11;;;;;;;989.00;553.13;;;-1.10;99.90;;;;;;5050250;28;20214;-52
2023/01/26 05:49:41;;;;;;;1496.43;792.77;;;-1.00;99.90;;;;;;5049645;28;20244;-51
2023/01/26 05:52:10;;;;;;;1996.17;718.67;;;-1.00;99.90;;;;;;5045370;28;20243;-52
2023/01/26 05:54:38;;;;;;;850.90;628.03;;;-1.00;99.90;;;;;;5048919;28;20224;-52
2023/01/26 05:57:07;;;;;;;430.83;383.57;;;-1.00;99.90;;;;;;5033087;28;20221;-52
2023/01/26 05:59:36;;;;;;;577.87;519.07;;;-1.00;99.90;;;;;;5045739;28;20213;-52
2023/01/26 06:02:05;;;;;;;884.80;620.23;;;-1.00;99.90;;;;;;5049303;28;20314;-53
2023/01/26 06:04:33;;;;;;;594.13;456.87;;;-1.00;99.90;;;;;;5048141;28;20682;-53
2023/01/26 06:07:01;;;;;;;633.67;528.57;;;-1.00;99.90;;;;;;5038867;28;20218;-53
2023/01/26 06:09:29;;;;;;;659.93;593.53;;;-0.90;99.90;;;;;;5048953;28;20380;-52
2023/01/26 06:11:57;;;;;;;541.70;487.03;;;-0.90;99.90;;;;;;5049189;28;20329;-53
2023/01/26 06:14:25;;;;;;;569.27;515.90;;;-0.80;99.90;;;;;;5035302;28;20321;-52
2023/01/26 06:16:55;;;;;;;625.43;567.10;;;-0.80;99.90;;;;;;5022411;28;20751;-53
2023/01/26 06:19:23;;;;;;;481.20;434.57;;;-0.70;99.90;;;;;;5049388;28;20257;-53
2023/01/26 06:21:52;;;;;;;561.00;502.07;;;-0.70;99.90;;;;;;5047544;28;20257;-51
2023/01/26 06:24:20;;;;;;;645.70;583.97;;;-0.70;99.90;;;;;;5049488;28;20277;-52
2023/01/26 06:26:48;;;;;;;499.93;457.07;;;-0.70;99.90;;;;;;5049220;28;20239;-52
2023/01/26 06:29:16;;;;;;;322.53;295.10;;;-0.70;99.90;;;;;;5049026;28;20991;-53
2023/01/26 06:31:44;;;;;;;415.57;366.10;;;-0.60;99.90;;;;;;5042954;28;20226;-54
2023/01/26 06:34:14;;;;;;;251.27;228.90;;;-0.60;99.90;;;;;;5049112;28;20913;-52
2023/01/26 06:36:42;;;;;;;278.33;252.97;;;-0.50;99.90;;;;;;5049251;28;20300;-52
2023/01/26 06:39:12;;;;;;;444.47;398.07;;;-0.50;99.90;;;;;;5049260;28;20259;-52
2023/01/26 06:41:42;;;;;;;368.60;334.80;;;-0.50;99.90;;;;;;5048966;28;20700;-52
2023/01/26 06:44:11;;;;;;;495.67;446.37;;;-0.50;99.90;;;;;;5049032;28;20287;-51
2023/01/26 06:46:40;;;;;;;341.33;305.57;;;-0.50;99.90;;;;;;5041571;28;20308;-53
2023/01/26 06:49:09;;;;;;;563.07;513.20;;;-0.40;99.90;;;;;;5046678;28;20209;-54
2023/01/26 06:51:55;;;;;;;491.80;443.97;;;-0.40;99.90;;;;;;5037755;28;20312;-53
2023/01/26 06:54:23;;;;;;;675.83;575.83;;;-0.50;99.90;;;;;;5021173;28;20666;-52
2023/01/26 06:56:51;;;;;;;431.37;391.23;;;-0.50;99.90;;;;;;5048454;28;20296;-53
2023/01/26 06:59:20;;;;;;;315.67;287.23;;;-0.50;99.90;;;;;;5043066;28;20305;-53
2023/01/26 07:01:48;;;;;;;636.27;501.53;;;-0.50;99.90;;;;;;5039544;28;20812;-53
2023/01/26 07:04:17;;;;;;;583.43;528.50;;;-0.50;99.90;;;;;;5051764;28;20293;-53
2023/01/26 07:06:45;;;;;;;868.27;557.97;;;-0.50;99.90;;;;;;5052875;28;20242;-53
2023/01/26 07:09:14;;;;;;;1032.43;547.23;;;-0.60;99.90;;;;;;5049387;28;20292;-51
2023/01/26 07:11:42;;;;;;;220.37;191.13;;;-0.60;99.90;;;;;;5052913;28;20316;-54
2023/01/26 07:14:10;;;;;;;277.50;249.80;;;-0.50;99.90;;;;;;5052608;28;20250;-52
2023/01/26 07:16:38;;;;;;;363.77;302.07;;;-0.40;99.90;;;;;;5052626;28;20673;-54
2023/01/26 07:19:06;;;;;;;508.20;455.77;;;-0.40;99.90;;;;;;5052600;28;20248;-53
2023/01/26 07:21:37;;;;;;;264.00;238.53;;;-0.30;99.90;;;;;;5052825;28;20235;-53
2023/01/26 07:24:06;;;;;;;212.53;189.80;;;-0.30;99.90;;;;;;5049275;28;21038;-53
2023/01/26 07:26:36;;;;;;;362.13;329.57;;;-0.30;99.90;;;;;;5051937;28;20209;-52
2023/01/26 07:29:04;;;;;;;407.13;311.03;;;-0.30;99.90;;;;;;5052664;28;20307;-52
2023/01/26 07:31:32;;;;;;;362.73;319.97;;;-0.30;99.90;;;;;;5052413;28;20235;-53
2023/01/26 07:34:00;;;;;;;304.47;273.67;;;-0.30;99.90;;;;;;5024623;28;20703;-52
2023/01/26 07:36:28;;;;;;;250.53;221.70;;;-0.30;99.90;;;;;;5052296;28;20320;-52
2023/01/26 07:38:57;;;;;;;269.30;234.00;;;-0.20;99.90;;;;;;5052218;28;20232;-53
2023/01/26 07:41:25;;;;;;;169.00;151.27;;;-0.20;99.90;;;;;;5052122;28;20951;-52
2023/01/26 07:43:54;;;;;;;225.20;151.77;;;-0.20;99.90;;;;;;5051941;28;20215;-51
2023/01/26 07:46:23;;;;;;;479.07;291.23;;;-0.20;99.90;;;;;;5047433;28;20239;-53
2023/01/26 07:48:51;;;;;;;189.20;156.03;;;-0.10;99.90;;;;;;5051208;28;20205;-52
2023/01/26 07:51:19;;;;;;;338.47;287.97;;;-0.10;99.90;;;;;;5021065;28;20822;-53
2023/01/26 07:53:48;;;;;;;324.50;233.60;;;-0.10;99.90;;;;;;5046800;28;20304;-53
2023/01/26 07:56:19;;;;;;;112.87;71.80;;;-0.10;99.90;;;;;;5052404;28;20212;-53
2023/01/26 07:58:50;;;;;;;321.93;251.90;;;0.00;99.90;;;;;;5025397;28;20668;-54
2023/01/26 08:01:20;;;;;;;192.60;159.50;;;0.00;99.90;;;;;;5052178;28;20316;-53
2023/01/26 08:03:50;;;;;;;129.00;79.90;;;0.10;99.90;;;;;;5039928;28;20294;-53
2023/01/26 08:06:18;;;;;;;134.67;99.77;;;0.10;99.90;;;;;;5031974;28;20239;-53
2023/01/26 08:08:49;;;;;;;205.37;151.30;;;0.10;99.90;;;;;;5043936;28;20203;-53
2023/01/26 08:11:21;;;;;;;129.17;78.47;;;0.20;99.90;;;;;;5051887;28;20265;-53
2023/01/26 08:13:49;;;;;;;250.13;164.77;;;0.30;99.90;;;;;;5050972;28;20209;-52
2023/01/26 08:16:18;;;;;;;238.17;183.57;;;0.30;99.90;;;;;;5051443;28;21176;-52
2023/01/26 08:18:47;;;;;;;186.23;114.67;;;0.30;99.90;;;;;;5051340;28;20206;-52
2023/01/26 08:21:16;;;;;;;165.80;137.00;;;0.40;99.90;;;;;;5049783;28;20250;-52
2023/01/26 08:23:48;;;;;;;265.87;172.77;;;0.30;99.90;;;;;;5045293;28;20299;-57
2023/01/26 08:26:18;;;;;;;238.00;185.40;;;0.40;99.90;;;;;;5051751;28;20206;-53
2023/01/26 08:28:46;;;;;;;194.13;136.70;;;0.30;99.90;;;;;;5051583;28;20216;-52
2023/01/26 08:31:18;;;;;;;209.57;172.20;;;0.30;99.90;;;;;;5051152;28;20264;-52
2023/01/26 08:33:50;;;;;;;242.27;169.50;;;0.40;99.90;;;;;;5051201;28;20250;-52
2023/01/26 08:36:18;;;;;;;145.97;107.63;;;0.50;99.90;;;;;;5049333;28;20229;-53
2023/01/26 08:38:49;;;;;;;113.50;70.47;;;0.50;99.90;;;;;;5051061;28;20202;-52
2023/01/26 08:41:17;;;;;;;137.83;101.27;;;0.60;99.90;;;;;;5041260;28;20268;-54
2023/01/26 08:43:45;;;;;;;247.03;162.83;;;0.60;99.90;;;;;;5050760;28;20297;-53
2023/01/26 08:46:13;;;;;;;261.70;140.13;;;0.50;99.90;;;;;;5050977;28;20306;-54
2023/01/26 08:48:41;;;;;;;230.17;187.80;;;0.40;99.90;;;;;;5051297;28;20210;-52
2023/01/26 08:51:10;;;;;;;245.23;151.60;;;0.30;99.90;;;;;;5050943;28;20317;-54
2023/01/26 08:53:38;;;;;;;148.67;111.53;;;0.30;99.90;;;;;;5050528;28;20215;-52
2023/01/26 08:56:10;;;;;;;243.77;188.87;;;0.40;99.90;;;;;;5018856;28;20223;-52
2023/01/26 08:58:38;;;;;;;220.13;138.10;;;0.50;99.90;;;;;;5044031;28;20213;-54
2023/01/26 09:01:07;;;;;;;238.87;154.33;;;0.50;99.90;;;;;;5044144;28;20278;-53
2023/01/26 09:03:36;;;;;;;247.03;165.30;;;0.50;99.90;;;;;;5050812;28;20206;-52
2023/01/26 09:06:06;;;;;;;1405.53;404.77;;;0.50;99.90;;;;;;5050551;28;20317;-53
2023/01/26 09:08:36;;;;;;;173.20;130.00;;;0.70;99.90;;;;;;5039947;28;20316;-52
2023/01/26 09:11:06;;;;;;;480.87;296.97;;;0.80;99.90;;;;;;5044570;28;20222;-55
2023/01/26 09:13:35;;;;;;;312.80;125.93;;;0.80;99.90;;;;;;5040159;28;20213;-54
2023/01/26 09:16:04;;;;;;;391.80;157.53;;;0.80;99.90;;;;;;5050404;28;20233;-52
2023/01/26 09:18:33;;;;;;;241.13;167.57;;;0.80;99.90;;;;;;5034061;28;20293;-53
2023/01/26 09:21:05;;;;;;;159.20;74.30;;;0.80;99.90;;;;;;5050554;28;20232;-52
2023/01/26 09:23:35;;;;;;;138.93;110.17;;;0.90;99.90;;;;;;5050302;28;20208;-53
2023/01/26 09:26:03;;;;;;;189.97;152.03;;;0.80;99.90;;;;;;5050068;28;20289;-52
2023/01/26 09:28:31;;;;;;;215.77;128.90;;;0.90;99.90;;;;;;5050452;28;20208;-52
2023/01/26 09:31:03;;;;;;;163.40;145.73;;;1.00;99.90;;;;;;5050532;28;20231;-53
2023/01/26 09:33:32;;;;;;;82.37;50.83;;;1.20;99.90;;;;;;5046844;28;20310;-52
2023/01/26 09:36:04;;;;;;;139.20;114.33;;;1.30;99.90;;;;;;5021474;28;20316;-52
2023/01/26 09:38:32;;;;;;;123.90;90.07;;;1.40;99.90;;;;;;5024322;28;20295;-52
2023/01/26 09:41:06;;;;;;;151.87;124.17;;;1.40;99.90;;;;;;5049946;28;20261;-52
2023/01/26 09:43:40;;;;;;;180.70;121.77;;;1.50;99.90;;;;;;5045597;28;20629;-52
2023/01/26 09:46:20;;;;;;;181.80;133.50;;;1.50;99.90;;;;;;5038424;28;20641;-52
2023/01/26 09:48:58;;;;;;;202.27;150.20;;;1.50;99.90;;;;;;5042427;28;20216;-52
2023/01/26 09:51:32;;;;;;;125.63;103.83;;;1.60;99.90;;;;;;5043245;28;20239;-53
2023/01/26 09:54:04;;;;;;;176.03;119.93;;;1.70;99.90;;;;;;5049353;28;20215;-53
2023/01/26 09:56:34;;;;;;;181.70;87.10;;;1.70;99.90;;;;;;5049708;28;20240;-54
2023/01/26 09:59:07;;;;;;;121.23;86.90;;;1.70;99.90;;;;;;5045225;28;20234;-52
2023/01/26 10:01:40;;;;;;;470.13;186.77;;;1.60;99.90;;;;;;5049376;28;20255;-52
2023/01/26 10:04:20;;;;;;;142.93;111.33;;;1.50;99.90;;;;;;5025037;28;20638;-53
2023/01/26 10:06:49;;;;;;;230.73;164.83;;;1.40;99.90;;;;;;5049702;28;20296;-52
2023/01/26 10:09:22;;;;;;;170.57;89.20;;;1.40;99.90;;;;;;5049290;28;20267;-53
2023/01/26 10:11:55;;;;;;;138.47;94.63;;;1.50;99.90;;;;;;5030513;28;20789;-53
2023/01/26 10:14:32;;;;;;;145.93;87.60;;;1.50;99.90;;;;;;5042889;28;20210;-53
2023/01/26 10:17:01;;;;;;;165.43;137.07;;;1.50;99.90;;;;;;5042321;28;20249;-54
2023/01/26 10:19:35;;;;;;;155.53;119.60;;;1.50;99.90;;;;;;5049633;28;20302;-54
2023/01/26 10:22:10;;;;;;;170.23;99.23;;;1.50;99.90;;;;;;5049339;28;20768;-52
2023/01/26 10:24:39;;;;;;;135.33;98.07;;;1.50;99.90;;;;;;5040377;28;21009;-52
2023/01/26 10:27:12;;;;;;;162.23;142.10;;;1.60;99.90;;;;;;5049234;28;20201;-52
2023/01/26 10:29:41;;;;;;;206.03;146.60;;;1.70;99.90;;;;;;5045660;28;20635;-53
2023/01/26 10:32:14;;;;;;;124.33;71.73;;;1.70;99.90;;;;;;5049119;28;20225;-52
2023/01/26 10:34:43;;;;;;;301.13;108.90;;;1.60;99.90;;;;;;5049191;28;20876;-53
2023/01/26 10:37:20;;;;;;;155.33;116.30;;;1.60;99.90;;;;;;5048208;28;20225;-54
2023/01/26 10:39:59;;;;;;;195.13;93.30;;;1.60;99.90;;;;;;5048498;28;20331;-52
2023/01/26 10:42:31;;;;;;;232.40;147.90;;;1.60;99.90;;;;;;5048763;28;20239;-52
2023/01/26 10:45:01;;;;;;;212.00;134.50;;;1.60;99.90;;;;;;5042350;28;20268;-52
2023/01/26 10:47:29;;;;;;;134.77;100.40;;;1.70;99.90;;;;;;5048164;28;20202;-53
2023/01/26 10:50:19;;;;;;;206.73;152.97;;;1.70;99.90;;;;;;5045325;28;20304;-54
2023/01/26 10:52:58;;;;;;;157.80;120.27;;;1.70;99.90;;;;;;5048724;28;20259;-53
2023/01/26 10:55:27;;;;;;;114.60;92.47;;;1.60;99.90;;;;;;5048856;28;20205;-53
2023/01/26 10:57:56;;;;;;;247.03;116.47;;;1.60;99.90;;;;;;5042183;28;20241;-53
2023/01/26 11:00:28;;;;;;;90.63;52.13;;;1.60;99.90;;;;;;5048986;28;20240;-53
2023/01/26 11:03:04;;;;;;;129.83;86.13;;;1.80;99.90;;;;;;5026930;28;20212;-53
2023/01/26 11:05:33;;;;;;;174.87;110.97;;;1.80;99.90;;;;;;5040454;28;20251;-52
2023/01/26 11:08:02;;;;;;;451.70;188.73;;;1.90;99.90;;;;;;5035292;28;20313;-53
2023/01/26 11:10:32;;;;;;;133.60;73.80;;;1.90;99.90;;;;;;5048496;28;20217;-53
2023/01/26 11:13:18;;;;;;;181.53;94.53;;;1.80;99.90;;;;;;5043069;28;20623;-53
2023/01/26 11:15:48;;;;;;;321.10;134.20;;;1.90;99.90;;;;;;5047619;28;20797;-52
2023/01/26 11:18:28;;;;;;;164.53;70.17;;;1.90;99.90;;;;;;5010312;28;20211;-53
2023/01/26 11:21:00;;;;;;;182.60;95.90;;;1.90;99.90;;;;;;5037562;28;20233;-52
2023/01/26 11:23:45;;;;;;;122.93;81.83;;;1.90;99.90;;;;;;5033589;28;20293;-53
2023/01/26 11:26:33;;;;;;;145.63;97.97;;;1.90;99.90;;;;;;5043863;28;20212;-53
2023/01/26 11:29:18;;;;;;;230.20;104.40;;;1.90;99.90;;;;;;5030661;28;20741;-53
2023/01/26 11:31:56;;;;;;;115.67;69.63;;;2.00;99.90;;;;;;5048071;28;20264;-52
2023/01/26 11:34:32;;;;;;;113.90;72.93;;;2.00;99.90;;;;;;5045857;28;20211;-53
2023/01/26 11:37:22;;;;;;;97.07;50.93;;;2.10;99.90;;;;;;5041664;28;20311;-52
2023/01/26 11:39:59;;;;;;;211.80;100.53;;;2.20;99.90;;;;;;5025287;28;20221;-52
2023/01/26 11:42:34;;;;;;;259.60;119.00;;;2.30;99.90;;;;;;5047772;28;20330;-53
2023/01/26 11:45:17;;;;;;;218.27;136.83;;;2.30;99.90;;;;;;5041757;28;20298;-52
2023/01/26 11:48:09;;;;;;;199.23;151.97;;;2.30;99.90;;;;;;5023453;28;20203;-53
2023/01/26 11:50:45;;;;;;;280.80;171.17;;;2.30;99.90;;;;;;5051742;28;20205;-52
2023/01/26 11:53:27;;;;;;;273.13;157.47;;;2.30;99.90;;;;;;5050590;28;20651;-52
2023/01/26 11:56:07;;;;;;;274.03;129.53;;;2.30;99.90;;;;;;5049178;28;20221;-53
2023/01/26 11:58:41;;;;;;;107.27;65.50;;;2.20;99.90;;;;;;5045060;28;20206;-52
2023/01/26 12:01:15;;;;;;;135.33;86.57;;;2.30;99.90;;;;;;5032465;28;20253;-53
2023/01/26 12:03:47;;;;;;;140.50;87.60;;;2.30;99.90;;;;;;5051685;28;20253;-52
2023/01/26 12:06:18;;;;;;;127.90;78.67;;;2.30;99.90;;;;;;5051915;28;20491;-52
2023/01/26 12:08:51;;;;;;;136.60;66.93;;;2.40;99.90;;;;;;5033030;28;20232;-51
2023/01/26 12:11:25;;;;;;;297.10;89.47;;;2.40;99.90;;;;;;5050945;28;20254;-53
2023/01/26 12:14:07;;;;;;;186.73;114.93;;;2.40;99.90;;;;;;5051583;28;20213;-52
2023/01/26 12:16:49;;;;;;;225.80;94.70;;;2.40;99.90;;;;;;5051816;28;20676;-52
2023/01/26 12:19:31;;;;;;;138.87;102.43;;;2.40;99.90;;;;;;5051641;28;20751;-52
2023/01/26 12:22:05;;;;;;;84.37;48.87;;;2.40;99.90;;;;;;5044875;28;20260;-52
2023/01/26 12:24:39;;;;;;;107.47;62.70;;;2.40;99.90;;;;;;5051417;28;20683;-52
2023/01/26 12:27:33;;;;;;;265.93;154.07;;;2.40;99.90;;;;;;5051964;28;20205;-52
2023/01/26 12:30:06;;;;;;;185.50;110.73;;;2.40;99.90;;;;;;5039562;28;20301;-52
2023/01/26 12:32:35;;;;;;;151.27;106.07;;;2.30;99.90;;;;;;5051028;28;20613;-52
2023/01/26 12:35:04;;;;;;;109.10;73.10;;;2.30;99.90;;;;;;5051176;28;20296;-53
2023/01/26 12:37:47;;;;;;;155.17;84.53;;;2.30;99.90;;;;;;5039679;28;20399;-52
2023/01/26 12:40:24;;;;;;;165.83;98.53;;;2.30;99.90;;;;;;5042954;28;20299;-53
2023/01/26 12:43:05;;;;;;;87.63;49.13;;;2.30;99.90;;;;;;5044656;28;20234;-52
2023/01/26 12:45:37;;;;;;;223.53;116.10;;;2.30;99.90;;;;;;5045592;28;20688;-53
2023/01/26 12:48:14;;;;;;;133.10;101.77;;;2.30;99.90;;;;;;5031944;28;20230;-53
2023/01/26 12:50:47;;;;;;;136.67;81.50;;;2.30;99.90;;;;;;5042912;28;20209;-53
2023/01/26 12:53:20;;;;;;;182.77;99.57;;;2.30;99.90;;;;;;5050775;28;20234;-53
2023/01/26 12:55:52;;;;;;;91.57;53.90;;;2.30;99.90;;;;;;5050876;28;20691;-53
2023/01/26 12:58:26;;;;;;;174.60;105.60;;;2.20;99.90;;;;;;5051233;28;20225;-53
2023/01/26 13:01:00;;;;;;;198.70;108.27;;;2.30;99.90;;;;;;5049688;28;20237;-53
2023/01/26 13:03:33;;;;;;;161.03;109.23;;;2.40;99.90;;;;;;5050939;28;20564;-52
2023/01/26 13:06:17;;;;;;;130.43;70.77;;;2.40;99.90;;;;;;5050962;28;20301;-53
2023/01/26 13:08:52;;;;;;;166.03;93.63;;;2.40;99.90;;;;;;5035665;28;20199;-52
2023/01/26 13:11:44;;;;;;;162.53;100.93;;;2.40;99.90;;;;;;5046127;28;20697;-51
2023/01/26 13:14:26;;;;;;;157.63;104.53;;;2.40;99.90;;;;;;5050380;28;20206;-53
2023/01/26 13:16:55;;;;;;;353.67;121.37;;;2.40;99.90;;;;;;5029936;28;20205;-51
2023/01/26 13:19:58;;;;;;;282.53;94.20;;;2.30;99.90;;;;;;5040740;28;20233;-52
2023/01/26 13:22:39;;;;;;;131.83;96.70;;;2.30;99.90;;;;;;5050433;28;20237;-53
2023/01/26 13:25:17;;;;;;;233.53;98.93;;;2.30;99.90;;;;;;5025376;28;20212;-52
2023/01/26 13:27:47;;;;;;;103.43;57.13;;;2.30;99.90;;;;;;5038368;28;20212;-52